Main page
METAR-TAF:

METAR-TAF

Airports :

Kleine Brogel Air Base

Peer, Belgium

latitude: 51-10N, longitude: 005-28E, elevation: 55 m

Current weather observation

The report was made 26 minutes ago, at 23:33 UTC
Wind 4 kt from the North/Northwest
Temperature 4°C
Humidity 93%
Pressure 1008 hPa
Visibility: 3500 m
light rain

METAR: EBBL 172333Z AUTO 33004KT 3500 -RA FEW019/// OVC036/// 04/03 Q1008 YLO

Time: 00:59 (23:59 UTC)


TAF: missing

Weather observations and forecasts of more than 4000 airports (METAR and TAF reports).

The available stations are represented by yellow and red dots on the map.

Hover mouse over dot to see the name of the station.

Then click to see weather observations and forecasts.

To change the map : click on the green buttons with a black cross to zoom in, on the green button with a dash to zoom out, or on the green arrows for adjacent maps.


METAR-TAF: